createdAt,value
2022-09-07T00:08:30.452Z,6.20
2022-09-07T00:11:32.188Z,6.38
2022-09-07T00:14:34.406Z,6.10
2022-09-07T00:17:37.050Z,5.57
2022-09-07T00:20:39.103Z,5.85
2022-09-07T00:23:40.882Z,5.68
2022-09-07T00:26:42.399Z,5.53
2022-09-07T00:29:44.022Z,5.50
2022-09-07T00:32:45.591Z,6.18
2022-09-07T00:35:47.309Z,5.57
2022-09-07T00:38:49.269Z,5.55
2022-09-07T00:41:50.823Z,5.45
2022-09-07T00:45:17.636Z,5.43
2022-09-07T00:48:21.301Z,5.60
2022-09-07T00:51:42.068Z,5.50
2022-09-07T00:54:47.440Z,5.07
2022-09-07T00:57:52.340Z,5.13
2022-09-07T01:00:55.194Z,5.28
2022-09-07T01:03:58.749Z,5.50
2022-09-07T01:07:02.080Z,5.22
2022-09-07T01:10:04.003Z,5.10
2022-09-07T01:13:06.100Z,5.10
2022-09-07T01:16:26.646Z,5.50
2022-09-07T01:19:40.383Z,5.28
2022-09-07T01:23:13.112Z,4.93
2022-09-07T01:26:39.453Z,5.50
2022-09-07T01:29:47.610Z,4.97
2022-09-07T01:33:01.065Z,5.00
2022-09-07T09:49:35.886Z,3.40
2022-09-07T09:52:47.741Z,3.40
2022-09-07T09:55:52.836Z,3.67
2022-09-07T10:05:56.015Z,3.10
2022-09-07T10:09:00.096Z,3.35
2022-09-07T10:12:06.778Z,3.25
2022-09-07T10:15:40.504Z,3.17
2022-09-07T10:19:03.170Z,3.05
2022-09-07T10:22:31.552Z,3.10
2022-09-07T10:25:37.511Z,3.03
2022-09-07T10:32:09.630Z,3.03
2022-09-07T10:35:21.024Z,2.58
2022-09-07T10:38:25.005Z,2.90
2022-09-07T10:42:10.950Z,3.05
2022-09-07T10:45:30.794Z,2.80
2022-09-07T10:48:35.888Z,2.85
2022-09-07T10:51:49.794Z,2.80
2022-09-07T10:55:14.727Z,2.72
2022-09-07T10:59:04.530Z,2.97
2022-09-07T11:02:40.228Z,2.83
2022-09-07T14:52:27.430Z,1.75
2022-09-07T14:55:38.177Z,1.70
2022-09-07T14:58:39.705Z,1.50
2022-09-07T15:01:41.246Z,1.98
2022-09-07T15:04:42.793Z,1.63
2022-09-07T15:07:55.525Z,1.50
2022-09-07T15:14:34.923Z,1.75
2022-09-07T15:17:44.089Z,1.60
2022-09-07T15:20:45.846Z,1.63
2022-09-07T15:23:55.488Z,1.52
2022-09-07T15:27:04.321Z,1.67
2022-09-07T15:30:10.580Z,1.80
2022-09-07T15:33:12.013Z,1.50
2022-09-07T15:36:15.515Z,1.83
2022-09-07T15:39:21.204Z,1.80
2022-09-07T15:45:48.107Z,1.67
2022-09-07T18:45:29.516Z,3.25
2022-09-07T18:48:31.942Z,3.33
2022-09-07T18:52:51.551Z,3.35
2022-09-07T18:54:54.981Z,3.42
2022-09-07T18:57:56.427Z,3.00
2022-09-07T19:01:02.382Z,3.10
2022-09-07T19:04:05.872Z,2.90
2022-09-07T19:07:07.340Z,3.38
2022-09-07T19:10:11.335Z,3.42
2022-09-07T19:13:13.790Z,3.03
2022-09-07T19:16:19.494Z,3.30
2022-09-07T19:19:21.986Z,3.00
2022-09-07T19:22:23.466Z,3.38
2022-09-07T19:25:24.961Z,3.28
2022-09-07T19:28:26.725Z,3.05
2022-09-07T19:31:30.540Z,3.10
2022-09-07T19:34:40.848Z,3.35
2022-09-07T19:37:42.412Z,2.90
2022-09-07T19:40:44.043Z,3.40
2022-09-07T19:43:46.863Z,3.40
2022-09-07T19:46:48.988Z,3.20
2022-09-07T19:49:52.149Z,3.20
2022-09-07T19:52:53.626Z,3.10
2022-09-07T19:56:02.849Z,3.50
2022-09-07T19:59:04.320Z,3.37
2022-09-07T20:02:07.115Z,3.10
2022-09-07T20:05:09.033Z,3.38
2022-09-07T20:08:10.499Z,3.70
2022-09-07T20:11:14.778Z,3.53
2022-09-07T20:14:16.840Z,3.47
2022-09-07T20:17:18.306Z,3.75
2022-09-07T20:20:21.022Z,3.50
2022-09-07T20:23:23.084Z,3.80
2022-09-07T20:26:24.598Z,3.42
2022-09-07T20:29:28.192Z,3.58
2022-09-07T20:32:31.085Z,3.63
2022-09-07T20:35:32.600Z,3.72
2022-09-07T20:38:51.046Z,3.70
2022-09-07T20:41:52.613Z,3.80
2022-09-07T20:44:54.765Z,3.67
2022-09-07T20:47:56.211Z,4.20
2022-09-07T20:50:59.597Z,4.10
2022-09-07T20:54:01.203Z,4.10
2022-09-07T20:57:04.178Z,4.28
2022-09-07T21:00:06.886Z,4.30
2022-09-07T21:03:09.905Z,4.07
2022-09-07T21:06:12.044Z,3.95
2022-09-07T21:09:13.780Z,4.25
2022-09-07T21:12:15.713Z,4.07
2022-09-07T21:15:17.315Z,4.30
2022-09-07T21:18:18.860Z,4.45
2022-09-07T21:21:20.985Z,3.53
2022-09-07T21:24:23.520Z,3.63
2022-09-07T21:27:38.655Z,4.15
2022-09-07T21:30:40.372Z,4.22
2022-09-07T21:33:41.893Z,4.15
2022-09-07T21:36:43.642Z,4.40
2022-09-07T21:39:45.101Z,3.92
2022-09-07T21:42:46.572Z,3.92
2022-09-07T21:45:48.061Z,4.22
2022-09-07T21:48:49.701Z,4.20
2022-09-07T21:51:51.157Z,3.83
2022-09-07T21:54:52.630Z,4.30
2022-09-07T21:57:54.046Z,4.38
2022-09-07T22:00:56.887Z,3.92
2022-09-07T22:04:00.944Z,4.00
2022-09-07T22:07:02.395Z,4.05
2022-09-07T22:10:04.061Z,3.80
2022-09-07T22:13:05.496Z,3.63
2022-09-07T22:16:07.578Z,3.90
2022-09-07T22:19:08.997Z,3.58
2022-09-07T22:22:11.473Z,4.05
2022-09-07T22:25:13.834Z,4.32
2022-09-07T22:28:15.293Z,3.90
2022-09-07T22:31:21.489Z,4.00
2022-09-07T22:34:23.087Z,3.75
2022-09-07T22:37:24.674Z,4.25
2022-09-07T22:40:26.081Z,3.80
2022-09-07T22:43:27.531Z,3.70
2022-09-07T22:46:30.566Z,4.25
2022-09-07T22:49:32.057Z,3.80
2022-09-07T22:52:33.470Z,3.92
2022-09-07T22:55:38.418Z,3.85
2022-09-07T22:58:40.293Z,3.83
2022-09-07T23:01:42.007Z,3.88
2022-09-07T23:04:43.728Z,3.33
2022-09-07T23:07:48.434Z,3.72
2022-09-07T23:10:49.983Z,3.78
2022-09-07T23:13:53.052Z,3.60
2022-09-07T23:16:54.538Z,3.95
2022-09-07T23:19:56.010Z,3.85
2022-09-07T23:22:57.464Z,3.60
